sensor_id;sensor_type;location;lat;lon;timestamp;P1;durP1;ratioP1;P2;durP2;ratioP2
10523;SDS011;5310;48.638;9.060;2023-04-06T00:01:36;1.00;;;1.00;;
10523;SDS011;5310;48.638;9.060;2023-04-06T00:04:02;1.00;;;1.00;;
10523;SDS011;5310;48.638;9.060;2023-04-06T00:06:28;0.88;;;0.88;;
10523;SDS011;5310;48.638;9.060;2023-04-06T00:08:55;0.70;;;0.70;;
10523;SDS011;5310;48.638;9.060;2023-04-06T00:11:21;0.73;;;0.73;;
10523;SDS011;5310;48.638;9.060;2023-04-06T00:13:47;0.87;;;0.87;;
10523;SDS011;5310;48.638;9.060;2023-04-06T00:16:13;0.90;;;0.90;;
10523;SDS011;5310;48.638;9.060;2023-04-06T00:18:39;1.00;;;1.00;;
10523;SDS011;5310;48.638;9.060;2023-04-06T00:21:06;1.00;;;1.00;;
10523;SDS011;5310;48.638;9.060;2023-04-06T00:23:32;1.00;;;1.00;;
10523;SDS011;5310;48.638;9.060;2023-04-06T00:25:58;1.00;;;1.00;;
10523;SDS011;5310;48.638;9.060;2023-04-06T00:28:27;0.80;;;0.80;;
10523;SDS011;5310;48.638;9.060;2023-04-06T00:30:54;0.90;;;0.90;;
10523;SDS011;5310;48.638;9.060;2023-04-06T00:33:21;0.80;;;0.80;;
10523;SDS011;5310;48.638;9.060;2023-04-06T00:35:47;1.00;;;1.00;;
10523;SDS011;5310;48.638;9.060;2023-04-06T00:38:13;1.00;;;1.00;;
10523;SDS011;5310;48.638;9.060;2023-04-06T00:40:39;1.10;;;1.10;;
10523;SDS011;5310;48.638;9.060;2023-04-06T00:43:05;1.10;;;1.10;;
10523;SDS011;5310;48.638;9.060;2023-04-06T00:45:32;0.95;;;0.95;;
10523;SDS011;5310;48.638;9.060;2023-04-06T00:47:58;0.80;;;0.80;;
10523;SDS011;5310;48.638;9.060;2023-04-06T00:50:24;0.80;;;0.80;;
10523;SDS011;5310;48.638;9.060;2023-04-06T00:52:50;0.90;;;0.90;;
10523;SDS011;5310;48.638;9.060;2023-04-06T00:55:16;1.00;;;1.00;;
10523;SDS011;5310;48.638;9.060;2023-04-06T00:57:42;0.90;;;0.90;;
10523;SDS011;5310;48.638;9.060;2023-04-06T01:00:09;1.00;;;1.00;;
10523;SDS011;5310;48.638;9.060;2023-04-06T01:02:35;1.03;;;1.03;;
10523;SDS011;5310;48.638;9.060;2023-04-06T01:05:01;0.80;;;0.80;;
10523;SDS011;5310;48.638;9.060;2023-04-06T01:07:27;0.90;;;0.90;;
10523;SDS011;5310;48.638;9.060;2023-04-06T01:09:56;1.00;;;1.00;;
10523;SDS011;5310;48.638;9.060;2023-04-06T01:12:22;1.10;;;1.10;;
10523;SDS011;5310;48.638;9.060;2023-04-06T01:14:48;1.05;;;1.05;;
10523;SDS011;5310;48.638;9.060;2023-04-06T01:17:14;0.90;;;0.90;;
10523;SDS011;5310;48.638;9.060;2023-04-06T01:19:40;1.00;;;1.00;;
10523;SDS011;5310;48.638;9.060;2023-04-06T01:22:06;0.85;;;0.85;;
10523;SDS011;5310;48.638;9.060;2023-04-06T01:24:32;0.82;;;0.82;;
10523;SDS011;5310;48.638;9.060;2023-04-06T01:26:58;0.82;;;0.82;;
10523;SDS011;5310;48.638;9.060;2023-04-06T01:29:25;1.00;;;1.00;;
10523;SDS011;5310;48.638;9.060;2023-04-06T01:31:51;1.00;;;1.00;;
10523;SDS011;5310;48.638;9.060;2023-04-06T01:34:17;1.00;;;1.00;;
10523;SDS011;5310;48.638;9.060;2023-04-06T01:36:43;1.10;;;1.10;;
10523;SDS011;5310;48.638;9.060;2023-04-06T01:39:09;1.00;;;1.00;;
10523;SDS011;5310;48.638;9.060;2023-04-06T01:41:35;0.80;;;0.80;;
10523;SDS011;5310;48.638;9.060;2023-04-06T01:44:02;1.00;;;1.00;;
10523;SDS011;5310;48.638;9.060;2023-04-06T01:46:28;1.00;;;1.00;;
10523;SDS011;5310;48.638;9.060;2023-04-06T01:48:53;1.10;;;1.10;;
10523;SDS011;5310;48.638;9.060;2023-04-06T01:51:20;1.02;;;1.02;;
10523;SDS011;5310;48.638;9.060;2023-04-06T01:53:46;1.00;;;1.00;;
10523;SDS011;5310;48.638;9.060;2023-04-06T01:56:13;0.90;;;0.90;;
10523;SDS011;5310;48.638;9.060;2023-04-06T01:58:39;1.00;;;1.00;;
10523;SDS011;5310;48.638;9.060;2023-04-06T02:01:05;1.00;;;1.00;;
10523;SDS011;5310;48.638;9.060;2023-04-06T02:03:31;1.00;;;1.00;;
10523;SDS011;5310;48.638;9.060;2023-04-06T02:05:57;0.93;;;0.93;;
10523;SDS011;5310;48.638;9.060;2023-04-06T02:08:23;0.95;;;0.95;;
10523;SDS011;5310;48.638;9.060;2023-04-06T02:10:49;0.82;;;0.82;;
10523;SDS011;5310;48.638;9.060;2023-04-06T02:13:15;0.90;;;0.90;;
10523;SDS011;5310;48.638;9.060;2023-04-06T02:15:41;1.00;;;1.00;;
10523;SDS011;5310;48.638;9.060;2023-04-06T02:18:07;1.00;;;1.00;;
10523;SDS011;5310;48.638;9.060;2023-04-06T02:20:34;1.00;;;1.00;;
10523;SDS011;5310;48.638;9.060;2023-04-06T02:23:00;0.80;;;0.80;;
10523;SDS011;5310;48.638;9.060;2023-04-06T02:25:26;0.90;;;0.90;;
10523;SDS011;5310;48.638;9.060;2023-04-06T02:27:52;0.98;;;0.98;;
10523;SDS011;5310;48.638;9.060;2023-04-06T02:30:18;1.02;;;1.02;;
10523;SDS011;5310;48.638;9.060;2023-04-06T02:32:44;1.10;;;1.10;;
10523;SDS011;5310;48.638;9.060;2023-04-06T02:35:10;1.10;;;1.10;;
10523;SDS011;5310;48.638;9.060;2023-04-06T02:37:36;0.90;;;0.90;;
10523;SDS011;5310;48.638;9.060;2023-04-06T02:40:02;0.90;;;0.90;;
10523;SDS011;5310;48.638;9.060;2023-04-06T02:42:29;0.90;;;0.90;;
10523;SDS011;5310;48.638;9.060;2023-04-06T02:44:54;1.00;;;1.00;;
10523;SDS011;5310;48.638;9.060;2023-04-06T02:47:20;1.10;;;1.10;;
10523;SDS011;5310;48.638;9.060;2023-04-06T02:49:46;1.10;;;1.10;;
10523;SDS011;5310;48.638;9.060;2023-04-06T02:52:12;1.10;;;1.10;;
10523;SDS011;5310;48.638;9.060;2023-04-06T02:54:38;1.10;;;1.10;;
10523;SDS011;5310;48.638;9.060;2023-04-06T02:57:04;0.90;;;0.90;;
10523;SDS011;5310;48.638;9.060;2023-04-06T02:59:30;1.00;;;1.00;;
10523;SDS011;5310;48.638;9.060;2023-04-06T03:01:56;1.00;;;1.00;;
10523;SDS011;5310;48.638;9.060;2023-04-06T03:04:22;1.00;;;1.00;;
10523;SDS011;5310;48.638;9.060;2023-04-06T03:06:50;1.10;;;1.10;;
10523;SDS011;5310;48.638;9.060;2023-04-06T03:09:16;0.90;;;0.90;;
10523;SDS011;5310;48.638;9.060;2023-04-06T03:11:42;1.00;;;1.00;;
10523;SDS011;5310;48.638;9.060;2023-04-06T03:14:08;1.00;;;1.00;;
10523;SDS011;5310;48.638;9.060;2023-04-06T03:16:34;1.10;;;1.10;;
10523;SDS011;5310;48.638;9.060;2023-04-06T03:19:00;1.10;;;1.10;;
10523;SDS011;5310;48.638;9.060;2023-04-06T03:21:26;0.90;;;0.90;;
10523;SDS011;5310;48.638;9.060;2023-04-06T03:23:52;1.00;;;1.00;;
10523;SDS011;5310;48.638;9.060;2023-04-06T03:26:18;1.00;;;1.00;;
10523;SDS011;5310;48.638;9.060;2023-04-06T03:28:44;1.00;;;1.00;;
10523;SDS011;5310;48.638;9.060;2023-04-06T03:31:10;1.10;;;1.10;;
10523;SDS011;5310;48.638;9.060;2023-04-06T03:33:36;0.95;;;0.95;;
10523;SDS011;5310;48.638;9.060;2023-04-06T03:36:02;0.90;;;0.90;;
10523;SDS011;5310;48.638;9.060;2023-04-06T03:38:28;1.00;;;1.00;;
10523;SDS011;5310;48.638;9.060;2023-04-06T03:40:54;1.10;;;1.10;;
10523;SDS011;5310;48.638;9.060;2023-04-06T03:43:20;1.10;;;1.10;;
10523;SDS011;5310;48.638;9.060;2023-04-06T03:45:46;1.10;;;1.10;;
10523;SDS011;5310;48.638;9.060;2023-04-06T03:48:11;1.00;;;1.00;;
10523;SDS011;5310;48.638;9.060;2023-04-06T03:50:37;1.10;;;1.10;;
10523;SDS011;5310;48.638;9.060;2023-04-06T03:53:03;1.00;;;1.00;;
10523;SDS011;5310;48.638;9.060;2023-04-06T03:55:29;1.10;;;1.10;;
10523;SDS011;5310;48.638;9.060;2023-04-06T03:57:55;0.90;;;0.90;;
10523;SDS011;5310;48.638;9.060;2023-04-06T04:00:22;0.90;;;0.90;;
10523;SDS011;5310;48.638;9.060;2023-04-06T04:02:48;1.00;;;1.00;;
10523;SDS011;5310;48.638;9.060;2023-04-06T04:05:14;1.10;;;1.10;;
10523;SDS011;5310;48.638;9.060;2023-04-06T04:07:40;1.10;;;1.10;;
10523;SDS011;5310;48.638;9.060;2023-04-06T04:10:06;0.90;;;0.90;;
10523;SDS011;5310;48.638;9.060;2023-04-06T04:12:32;0.85;;;0.85;;
10523;SDS011;5310;48.638;9.060;2023-04-06T04:14:58;1.10;;;1.10;;
10523;SDS011;5310;48.638;9.060;2023-04-06T04:17:24;1.03;;;1.03;;
10523;SDS011;5310;48.638;9.060;2023-04-06T04:19:50;0.80;;;0.80;;
10523;SDS011;5310;48.638;9.060;2023-04-06T04:22:16;1.00;;;1.00;;
10523;SDS011;5310;48.638;9.060;2023-04-06T04:24:42;1.00;;;1.00;;
10523;SDS011;5310;48.638;9.060;2023-04-06T04:27:08;1.10;;;1.10;;
10523;SDS011;5310;48.638;9.060;2023-04-06T04:29:34;1.10;;;1.10;;
10523;SDS011;5310;48.638;9.060;2023-04-06T04:32:00;0.90;;;0.90;;
10523;SDS011;5310;48.638;9.060;2023-04-06T04:34:26;1.00;;;1.00;;
10523;SDS011;5310;48.638;9.060;2023-04-06T04:36:52;1.10;;;1.10;;
10523;SDS011;5310;48.638;9.060;2023-04-06T04:39:18;1.10;;;1.10;;
10523;SDS011;5310;48.638;9.060;2023-04-06T04:41:44;1.00;;;1.00;;
10523;SDS011;5310;48.638;9.060;2023-04-06T04:44:10;1.00;;;1.00;;
10523;SDS011;5310;48.638;9.060;2023-04-06T04:46:36;1.00;;;1.00;;
10523;SDS011;5310;48.638;9.060;2023-04-06T04:49:02;1.00;;;1.00;;
10523;SDS011;5310;48.638;9.060;2023-04-06T04:51:28;1.10;;;1.10;;
10523;SDS011;5310;48.638;9.060;2023-04-06T04:53:55;0.93;;;0.93;;
10523;SDS011;5310;48.638;9.060;2023-04-06T04:56:21;1.00;;;1.00;;
10523;SDS011;5310;48.638;9.060;2023-04-06T04:58:47;1.00;;;1.00;;
10523;SDS011;5310;48.638;9.060;2023-04-06T05:01:13;1.00;;;1.00;;
10523;SDS011;5310;48.638;9.060;2023-04-06T05:03:39;0.90;;;0.90;;
10523;SDS011;5310;48.638;9.060;2023-04-06T05:06:06;0.98;;;0.98;;
10523;SDS011;5310;48.638;9.060;2023-04-06T05:08:32;1.10;;;1.10;;
10523;SDS011;5310;48.638;9.060;2023-04-06T05:10:58;1.05;;;1.05;;
10523;SDS011;5310;48.638;9.060;2023-04-06T05:13:24;1.10;;;1.10;;
10523;SDS011;5310;48.638;9.060;2023-04-06T05:15:50;0.90;;;0.90;;
10523;SDS011;5310;48.638;9.060;2023-04-06T05:18:16;1.00;;;1.00;;
10523;SDS011;5310;48.638;9.060;2023-04-06T05:20:42;1.08;;;1.08;;
10523;SDS011;5310;48.638;9.060;2023-04-06T05:23:08;1.10;;;1.10;;
10523;SDS011;5310;48.638;9.060;2023-04-06T05:25:35;0.98;;;0.98;;
10523;SDS011;5310;48.638;9.060;2023-04-06T05:28:01;1.00;;;1.00;;
10523;SDS011;5310;48.638;9.060;2023-04-06T05:30:27;1.00;;;1.00;;
10523;SDS011;5310;48.638;9.060;2023-04-06T05:32:53;1.00;;;1.00;;
10523;SDS011;5310;48.638;9.060;2023-04-06T05:35:19;1.10;;;1.10;;
10523;SDS011;5310;48.638;9.060;2023-04-06T05:37:45;0.90;;;0.90;;
10523;SDS011;5310;48.638;9.060;2023-04-06T05:40:11;0.90;;;0.90;;
10523;SDS011;5310;48.638;9.060;2023-04-06T05:42:41;1.00;;;1.00;;
10523;SDS011;5310;48.638;9.060;2023-04-06T05:45:10;1.00;;;1.00;;
10523;SDS011;5310;48.638;9.060;2023-04-06T05:47:41;1.00;;;1.00;;
10523;SDS011;5310;48.638;9.060;2023-04-06T05:50:08;1.00;;;1.00;;
10523;SDS011;5310;48.638;9.060;2023-04-06T05:52:34;0.90;;;0.90;;
10523;SDS011;5310;48.638;9.060;2023-04-06T05:55:01;0.90;;;0.90;;
10523;SDS011;5310;48.638;9.060;2023-04-06T05:57:27;1.00;;;1.00;;
10523;SDS011;5310;48.638;9.060;2023-04-06T05:59:52;1.08;;;1.08;;
10523;SDS011;5310;48.638;9.060;2023-04-06T06:02:18;1.10;;;1.10;;
10523;SDS011;5310;48.638;9.060;2023-04-06T06:04:44;1.00;;;1.00;;
10523;SDS011;5310;48.638;9.060;2023-04-06T06:07:11;0.90;;;0.90;;
10523;SDS011;5310;48.638;9.060;2023-04-06T06:09:36;0.90;;;0.90;;
10523;SDS011;5310;48.638;9.060;2023-04-06T06:12:02;0.90;;;0.90;;
10523;SDS011;5310;48.638;9.060;2023-04-06T06:14:28;0.90;;;0.90;;
10523;SDS011;5310;48.638;9.060;2023-04-06T06:16:54;1.00;;;1.00;;
10523;SDS011;5310;48.638;9.060;2023-04-06T06:19:20;1.00;;;1.00;;
10523;SDS011;5310;48.638;9.060;2023-04-06T06:21:46;1.00;;;1.00;;
10523;SDS011;5310;48.638;9.060;2023-04-06T06:24:12;1.00;;;1.00;;
10523;SDS011;5310;48.638;9.060;2023-04-06T06:26:38;1.00;;;1.00;;
10523;SDS011;5310;48.638;9.060;2023-04-06T06:29:04;0.98;;;0.98;;
10523;SDS011;5310;48.638;9.060;2023-04-06T06:31:31;0.77;;;0.77;;
10523;SDS011;5310;48.638;9.060;2023-04-06T06:33:57;0.80;;;0.80;;
10523;SDS011;5310;48.638;9.060;2023-04-06T06:36:23;0.80;;;0.80;;
10523;SDS011;5310;48.638;9.060;2023-04-06T06:38:50;0.80;;;0.80;;
10523;SDS011;5310;48.638;9.060;2023-04-06T06:41:16;0.80;;;0.80;;
10523;SDS011;5310;48.638;9.060;2023-04-06T06:43:42;0.90;;;0.90;;
10523;SDS011;5310;48.638;9.060;2023-04-06T06:46:08;1.00;;;1.00;;
10523;SDS011;5310;48.638;9.060;2023-04-06T06:48:34;0.90;;;0.90;;
10523;SDS011;5310;48.638;9.060;2023-04-06T06:51:00;0.80;;;0.80;;
10523;SDS011;5310;48.638;9.060;2023-04-06T06:53:26;0.77;;;0.77;;
10523;SDS011;5310;48.638;9.060;2023-04-06T06:55:52;0.70;;;0.70;;
10523;SDS011;5310;48.638;9.060;2023-04-06T06:58:18;0.70;;;0.70;;
10523;SDS011;5310;48.638;9.060;2023-04-06T07:00:45;0.70;;;0.70;;
10523;SDS011;5310;48.638;9.060;2023-04-06T07:03:11;0.65;;;0.65;;
10523;SDS011;5310;48.638;9.060;2023-04-06T07:05:37;0.70;;;0.70;;
10523;SDS011;5310;48.638;9.060;2023-04-06T07:08:03;0.67;;;0.67;;
10523;SDS011;5310;48.638;9.060;2023-04-06T07:10:29;0.70;;;0.70;;
10523;SDS011;5310;48.638;9.060;2023-04-06T07:12:55;0.70;;;0.70;;
10523;SDS011;5310;48.638;9.060;2023-04-06T07:15:21;0.60;;;0.60;;
10523;SDS011;5310;48.638;9.060;2023-04-06T07:17:47;0.63;;;0.63;;
10523;SDS011;5310;48.638;9.060;2023-04-06T07:20:13;0.77;;;0.77;;
10523;SDS011;5310;48.638;9.060;2023-04-06T07:22:40;0.90;;;0.90;;
10523;SDS011;5310;48.638;9.060;2023-04-06T07:25:06;0.90;;;0.90;;
10523;SDS011;5310;48.638;9.060;2023-04-06T07:27:32;0.70;;;0.70;;
10523;SDS011;5310;48.638;9.060;2023-04-06T07:29:58;0.70;;;0.70;;
10523;SDS011;5310;48.638;9.060;2023-04-06T07:32:24;0.60;;;0.60;;
10523;SDS011;5310;48.638;9.060;2023-04-06T07:34:50;0.50;;;0.50;;
10523;SDS011;5310;48.638;9.060;2023-04-06T07:37:16;0.85;;;0.85;;
10523;SDS011;5310;48.638;9.060;2023-04-06T07:39:42;0.90;;;0.90;;
10523;SDS011;5310;48.638;9.060;2023-04-06T07:42:08;0.77;;;0.77;;
10523;SDS011;5310;48.638;9.060;2023-04-06T07:44:35;0.65;;;0.65;;
10523;SDS011;5310;48.638;9.060;2023-04-06T07:47:01;0.60;;;0.60;;
10523;SDS011;5310;48.638;9.060;2023-04-06T07:49:27;0.57;;;0.57;;
10523;SDS011;5310;48.638;9.060;2023-04-06T07:51:53;0.90;;;0.90;;
10523;SDS011;5310;48.638;9.060;2023-04-06T07:54:19;0.70;;;0.70;;
10523;SDS011;5310;48.638;9.060;2023-04-06T07:56:45;0.60;;;0.60;;
10523;SDS011;5310;48.638;9.060;2023-04-06T07:59:11;0.50;;;0.50;;
10523;SDS011;5310;48.638;9.060;2023-04-06T08:01:38;0.65;;;0.65;;
10523;SDS011;5310;48.638;9.060;2023-04-06T08:04:04;0.80;;;0.80;;
10523;SDS011;5310;48.638;9.060;2023-04-06T08:06:30;0.60;;;0.60;;
10523;SDS011;5310;48.638;9.060;2023-04-06T08:08:56;0.50;;;0.50;;
10523;SDS011;5310;48.638;9.060;2023-04-06T08:11:22;0.77;;;0.77;;
10523;SDS011;5310;48.638;9.060;2023-04-06T08:13:48;0.65;;;0.65;;
10523;SDS011;5310;48.638;9.060;2023-04-06T08:16:14;0.60;;;0.60;;
10523;SDS011;5310;48.638;9.060;2023-04-06T08:18:40;0.50;;;0.50;;
10523;SDS011;5310;48.638;9.060;2023-04-06T08:21:06;0.70;;;0.70;;
10523;SDS011;5310;48.638;9.060;2023-04-06T08:23:32;0.60;;;0.60;;
10523;SDS011;5310;48.638;9.060;2023-04-06T08:25:58;0.45;;;0.45;;
10523;SDS011;5310;48.638;9.060;2023-04-06T08:28:24;0.70;;;0.70;;
10523;SDS011;5310;48.638;9.060;2023-04-06T08:30:50;0.57;;;0.57;;
10523;SDS011;5310;48.638;9.060;2023-04-06T08:33:16;0.45;;;0.45;;
10523;SDS011;5310;48.638;9.060;2023-04-06T08:35:42;0.60;;;0.60;;
10523;SDS011;5310;48.638;9.060;2023-04-06T08:38:08;0.50;;;0.50;;
10523;SDS011;5310;48.638;9.060;2023-04-06T08:40:37;0.60;;;0.60;;
10523;SDS011;5310;48.638;9.060;2023-04-06T08:43:03;0.60;;;0.60;;
10523;SDS011;5310;48.638;9.060;2023-04-06T08:45:33;0.40;;;0.40;;
10523;SDS011;5310;48.638;9.060;2023-04-06T08:47:59;0.60;;;0.60;;
10523;SDS011;5310;48.638;9.060;2023-04-06T08:50:27;0.47;;;0.47;;
10523;SDS011;5310;48.638;9.060;2023-04-06T08:52:53;0.60;;;0.60;;
10523;SDS011;5310;48.638;9.060;2023-04-06T08:55:19;0.40;;;0.40;;
10523;SDS011;5310;48.638;9.060;2023-04-06T08:57:45;0.60;;;0.60;;
10523;SDS011;5310;48.638;9.060;2023-04-06T09:00:12;0.50;;;0.50;;
10523;SDS011;5310;48.638;9.060;2023-04-06T09:02:39;0.40;;;0.40;;
10523;SDS011;5310;48.638;9.060;2023-04-06T09:05:06;0.57;;;0.57;;
10523;SDS011;5310;48.638;9.060;2023-04-06T09:07:33;0.40;;;0.40;;
10523;SDS011;5310;48.638;9.060;2023-04-06T09:09:59;0.50;;;0.50;;
10523;SDS011;5310;48.638;9.060;2023-04-06T09:12:29;0.40;;;0.40;;
10523;SDS011;5310;48.638;9.060;2023-04-06T09:14:55;0.60;;;0.60;;
10523;SDS011;5310;48.638;9.060;2023-04-06T09:17:22;0.50;;;0.50;;
10523;SDS011;5310;48.638;9.060;2023-04-06T09:19:49;0.60;;;0.60;;
10523;SDS011;5310;48.638;9.060;2023-04-06T09:22:15;0.40;;;0.40;;
10523;SDS011;5310;48.638;9.060;2023-04-06T09:27:08;0.47;;;0.47;;
10523;SDS011;5310;48.638;9.060;2023-04-06T09:29:33;0.38;;;0.38;;
10523;SDS011;5310;48.638;9.060;2023-04-06T09:32:11;0.40;;;0.40;;
10523;SDS011;5310;48.638;9.060;2023-04-06T09:34:41;0.50;;;0.50;;
10523;SDS011;5310;48.638;9.060;2023-04-06T09:37:16;0.50;;;0.50;;
10523;SDS011;5310;48.638;9.060;2023-04-06T09:39:43;0.40;;;0.40;;
10523;SDS011;5310;48.638;9.060;2023-04-06T09:42:09;0.40;;;0.40;;
10523;SDS011;5310;48.638;9.060;2023-04-06T09:44:35;0.50;;;0.50;;
10523;SDS011;5310;48.638;9.060;2023-04-06T09:47:01;0.50;;;0.50;;
10523;SDS011;5310;48.638;9.060;2023-04-06T09:49:28;0.32;;;0.32;;
10523;SDS011;5310;48.638;9.060;2023-04-06T09:51:57;0.40;;;0.40;;
10523;SDS011;5310;48.638;9.060;2023-04-06T09:54:24;0.43;;;0.43;;
10523;SDS011;5310;48.638;9.060;2023-04-06T09:56:58;0.50;;;0.50;;
10523;SDS011;5310;48.638;9.060;2023-04-06T09:59:31;0.50;;;0.50;;
10523;SDS011;5310;48.638;9.060;2023-04-06T10:02:02;0.50;;;0.50;;
10523;SDS011;5310;48.638;9.060;2023-04-06T10:04:37;0.32;;;0.32;;
10523;SDS011;5310;48.638;9.060;2023-04-06T10:07:06;0.40;;;0.40;;
10523;SDS011;5310;48.638;9.060;2023-04-06T10:09:33;0.50;;;0.50;;
10523;SDS011;5310;48.638;9.060;2023-04-06T10:12:09;0.50;;;0.50;;
10523;SDS011;5310;48.638;9.060;2023-04-06T10:14:36;0.50;;;0.50;;
10523;SDS011;5310;48.638;9.060;2023-04-06T10:17:03;0.32;;;0.32;;
10523;SDS011;5310;48.638;9.060;2023-04-06T10:19:35;0.47;;;0.47;;
10523;SDS011;5310;48.638;9.060;2023-04-06T10:22:05;0.50;;;0.50;;
10523;SDS011;5310;48.638;9.060;2023-04-06T10:24:35;0.50;;;0.50;;
10523;SDS011;5310;48.638;9.060;2023-04-06T10:27:01;0.32;;;0.32;;
10523;SDS011;5310;48.638;9.060;2023-04-06T10:29:27;0.40;;;0.40;;
10523;SDS011;5310;48.638;9.060;2023-04-06T10:31:53;0.50;;;0.50;;
10523;SDS011;5310;48.638;9.060;2023-04-06T10:34:20;0.40;;;0.40;;
10523;SDS011;5310;48.638;9.060;2023-04-06T10:36:46;0.30;;;0.30;;
10523;SDS011;5310;48.638;9.060;2023-04-06T10:39:12;0.40;;;0.40;;
10523;SDS011;5310;48.638;9.060;2023-04-06T10:41:42;0.40;;;0.40;;
10523;SDS011;5310;48.638;9.060;2023-04-06T10:44:17;0.50;;;0.50;;
10523;SDS011;5310;48.638;9.060;2023-04-06T10:46:51;0.50;;;0.50;;
10523;SDS011;5310;48.638;9.060;2023-04-06T10:49:17;0.40;;;0.40;;
10523;SDS011;5310;48.638;9.060;2023-04-06T10:51:43;0.40;;;0.40;;
10523;SDS011;5310;48.638;9.060;2023-04-06T10:54:09;0.40;;;0.40;;
10523;SDS011;5310;48.638;9.060;2023-04-06T10:56:38;0.50;;;0.50;;
10523;SDS011;5310;48.638;9.060;2023-04-06T10:59:05;0.50;;;0.50;;
10523;SDS011;5310;48.638;9.060;2023-04-06T11:01:32;0.40;;;0.40;;
10523;SDS011;5310;48.638;9.060;2023-04-06T11:03:58;0.40;;;0.40;;
10523;SDS011;5310;48.638;9.060;2023-04-06T11:06:25;0.40;;;0.40;;
10523;SDS011;5310;48.638;9.060;2023-04-06T11:08:51;0.40;;;0.40;;
10523;SDS011;5310;48.638;9.060;2023-04-06T11:11:18;0.50;;;0.50;;
10523;SDS011;5310;48.638;9.060;2023-04-06T11:18:47;0.47;;;0.47;;
10523;SDS011;5310;48.638;9.060;2023-04-06T11:21:13;0.40;;;0.40;;
10523;SDS011;5310;48.638;9.060;2023-04-06T11:23:39;0.40;;;0.40;;
10523;SDS011;5310;48.638;9.060;2023-04-06T11:26:09;0.50;;;0.50;;
10523;SDS011;5310;48.638;9.060;2023-04-06T11:28:35;0.50;;;0.50;;
10523;SDS011;5310;48.638;9.060;2023-04-06T11:31:01;0.40;;;0.40;;
10523;SDS011;5310;48.638;9.060;2023-04-06T11:33:27;0.40;;;0.40;;
10523;SDS011;5310;48.638;9.060;2023-04-06T11:35:56;0.40;;;0.40;;
10523;SDS011;5310;48.638;9.060;2023-04-06T11:38:22;0.30;;;0.30;;
10523;SDS011;5310;48.638;9.060;2023-04-06T11:40:52;0.37;;;0.37;;
10523;SDS011;5310;48.638;9.060;2023-04-06T11:43:18;0.45;;;0.45;;
10523;SDS011;5310;48.638;9.060;2023-04-06T11:45:51;0.40;;;0.40;;
10523;SDS011;5310;48.638;9.060;2023-04-06T11:48:25;0.40;;;0.40;;
10523;SDS011;5310;48.638;9.060;2023-04-06T11:50:55;0.47;;;0.47;;
10523;SDS011;5310;48.638;9.060;2023-04-06T11:53:21;0.50;;;0.50;;
10523;SDS011;5310;48.638;9.060;2023-04-06T11:55:47;0.40;;;0.40;;
10523;SDS011;5310;48.638;9.060;2023-04-06T11:58:13;0.40;;;0.40;;
10523;SDS011;5310;48.638;9.060;2023-04-06T12:00:40;0.30;;;0.30;;
10523;SDS011;5310;48.638;9.060;2023-04-06T12:03:09;0.40;;;0.40;;
10523;SDS011;5310;48.638;9.060;2023-04-06T12:05:35;0.30;;;0.30;;
10523;SDS011;5310;48.638;9.060;2023-04-06T12:08:02;0.30;;;0.30;;
10523;SDS011;5310;48.638;9.060;2023-04-06T12:10:28;0.30;;;0.30;;
10523;SDS011;5310;48.638;9.060;2023-04-06T12:12:54;0.30;;;0.30;;
10523;SDS011;5310;48.638;9.060;2023-04-06T12:15:20;0.30;;;0.30;;
10523;SDS011;5310;48.638;9.060;2023-04-06T12:17:46;0.38;;;0.38;;
10523;SDS011;5310;48.638;9.060;2023-04-06T12:20:12;0.40;;;0.40;;
10523;SDS011;5310;48.638;9.060;2023-04-06T12:22:38;0.40;;;0.40;;
10523;SDS011;5310;48.638;9.060;2023-04-06T12:25:05;0.40;;;0.40;;
10523;SDS011;5310;48.638;9.060;2023-04-06T12:27:31;0.40;;;0.40;;
10523;SDS011;5310;48.638;9.060;2023-04-06T12:29:57;0.30;;;0.30;;
10523;SDS011;5310;48.638;9.060;2023-04-06T12:32:23;0.30;;;0.30;;
10523;SDS011;5310;48.638;9.060;2023-04-06T12:34:51;0.40;;;0.40;;
10523;SDS011;5310;48.638;9.060;2023-04-06T12:37:18;0.47;;;0.47;;
10523;SDS011;5310;48.638;9.060;2023-04-06T12:39:45;0.50;;;0.50;;
10523;SDS011;5310;48.638;9.060;2023-04-06T12:42:11;0.50;;;0.50;;
10523;SDS011;5310;48.638;9.060;2023-04-06T12:44:38;0.50;;;0.50;;
10523;SDS011;5310;48.638;9.060;2023-04-06T12:47:04;0.50;;;0.50;;
10523;SDS011;5310;48.638;9.060;2023-04-06T12:49:32;0.50;;;0.50;;
10523;SDS011;5310;48.638;9.060;2023-04-06T12:51:58;0.50;;;0.50;;
10523;SDS011;5310;48.638;9.060;2023-04-06T12:54:24;0.50;;;0.50;;
10523;SDS011;5310;48.638;9.060;2023-04-06T12:56:51;0.60;;;0.60;;
10523;SDS011;5310;48.638;9.060;2023-04-06T12:59:17;0.70;;;0.70;;
10523;SDS011;5310;48.638;9.060;2023-04-06T13:01:43;0.70;;;0.70;;
10523;SDS011;5310;48.638;9.060;2023-04-06T13:04:09;0.60;;;0.60;;
10523;SDS011;5310;48.638;9.060;2023-04-06T13:06:35;0.53;;;0.53;;
10523;SDS011;5310;48.638;9.060;2023-04-06T13:09:01;0.60;;;0.60;;
10523;SDS011;5310;48.638;9.060;2023-04-06T13:11:29;0.60;;;0.60;;
10523;SDS011;5310;48.638;9.060;2023-04-06T13:13:55;0.50;;;0.50;;
10523;SDS011;5310;48.638;9.060;2023-04-06T13:16:21;0.53;;;0.53;;
10523;SDS011;5310;48.638;9.060;2023-04-06T13:18:47;0.60;;;0.60;;
10523;SDS011;5310;48.638;9.060;2023-04-06T13:21:13;0.60;;;0.60;;
10523;SDS011;5310;48.638;9.060;2023-04-06T13:23:41;0.60;;;0.60;;
10523;SDS011;5310;48.638;9.060;2023-04-06T13:26:06;0.60;;;0.60;;
10523;SDS011;5310;48.638;9.060;2023-04-06T13:28:33;0.50;;;0.50;;
10523;SDS011;5310;48.638;9.060;2023-04-06T13:31:02;0.60;;;0.60;;
10523;SDS011;5310;48.638;9.060;2023-04-06T13:33:28;0.60;;;0.60;;
10523;SDS011;5310;48.638;9.060;2023-04-06T13:35:54;0.70;;;0.70;;
10523;SDS011;5310;48.638;9.060;2023-04-06T13:38:20;0.60;;;0.60;;
10523;SDS011;5310;48.638;9.060;2023-04-06T13:40:46;0.50;;;0.50;;
10523;SDS011;5310;48.638;9.060;2023-04-06T13:43:12;0.70;;;0.70;;
10523;SDS011;5310;48.638;9.060;2023-04-06T13:45:38;0.60;;;0.60;;
10523;SDS011;5310;48.638;9.060;2023-04-06T13:48:04;0.50;;;0.50;;
10523;SDS011;5310;48.638;9.060;2023-04-06T13:50:30;0.80;;;0.80;;
10523;SDS011;5310;48.638;9.060;2023-04-06T13:52:56;0.50;;;0.50;;
10523;SDS011;5310;48.638;9.060;2023-04-06T13:55:22;0.60;;;0.60;;
10523;SDS011;5310;48.638;9.060;2023-04-06T13:57:51;0.50;;;0.50;;
10523;SDS011;5310;48.638;9.060;2023-04-06T14:00:17;0.53;;;0.53;;
10523;SDS011;5310;48.638;9.060;2023-04-06T14:02:43;0.50;;;0.50;;
10523;SDS011;5310;48.638;9.060;2023-04-06T14:05:09;0.60;;;0.60;;
10523;SDS011;5310;48.638;9.060;2023-04-06T14:07:35;0.43;;;0.43;;
10523;SDS011;5310;48.638;9.060;2023-04-06T14:10:01;0.50;;;0.50;;
10523;SDS011;5310;48.638;9.060;2023-04-06T14:12:27;0.50;;;0.50;;
10523;SDS011;5310;48.638;9.060;2023-04-06T14:14:53;0.50;;;0.50;;
10523;SDS011;5310;48.638;9.060;2023-04-06T14:17:19;0.50;;;0.50;;
10523;SDS011;5310;48.638;9.060;2023-04-06T14:19:45;0.57;;;0.57;;
10523;SDS011;5310;48.638;9.060;2023-04-06T14:22:11;0.40;;;0.40;;
10523;SDS011;5310;48.638;9.060;2023-04-06T14:24:38;0.50;;;0.50;;
10523;SDS011;5310;48.638;9.060;2023-04-06T14:27:04;0.50;;;0.50;;
10523;SDS011;5310;48.638;9.060;2023-04-06T14:29:30;0.50;;;0.50;;
10523;SDS011;5310;48.638;9.060;2023-04-06T14:31:56;0.40;;;0.40;;
10523;SDS011;5310;48.638;9.060;2023-04-06T14:34:28;0.60;;;0.60;;
10523;SDS011;5310;48.638;9.060;2023-04-06T14:36:53;0.60;;;0.60;;
10523;SDS011;5310;48.638;9.060;2023-04-06T14:39:20;0.50;;;0.50;;
10523;SDS011;5310;48.638;9.060;2023-04-06T14:41:46;0.50;;;0.50;;
10523;SDS011;5310;48.638;9.060;2023-04-06T14:44:12;0.60;;;0.60;;
10523;SDS011;5310;48.638;9.060;2023-04-06T14:46:38;0.50;;;0.50;;
10523;SDS011;5310;48.638;9.060;2023-04-06T14:49:04;0.40;;;0.40;;
10523;SDS011;5310;48.638;9.060;2023-04-06T14:51:30;0.50;;;0.50;;
10523;SDS011;5310;48.638;9.060;2023-04-06T14:53:56;0.60;;;0.60;;
10523;SDS011;5310;48.638;9.060;2023-04-06T14:56:23;0.50;;;0.50;;
10523;SDS011;5310;48.638;9.060;2023-04-06T14:58:49;0.50;;;0.50;;
10523;SDS011;5310;48.638;9.060;2023-04-06T15:01:15;0.50;;;0.50;;
10523;SDS011;5310;48.638;9.060;2023-04-06T15:03:41;0.40;;;0.40;;